createdAt,value
2022-08-07T00:04:48.661Z,100292.84
2022-08-07T00:10:04.928Z,100279.75
2022-08-07T00:15:15.510Z,100276.63
2022-08-07T00:20:30.002Z,100270.78
2022-08-07T00:25:41.448Z,100261.22
2022-08-07T00:30:44.476Z,100255.41
2022-08-07T00:35:49.693Z,100253.13
2022-08-07T00:40:53.988Z,100250.03
2022-08-07T00:45:56.724Z,100247.53
2022-08-07T00:50:59.666Z,100250.91
2022-08-07T00:56:04.656Z,100245.09
2022-08-07T01:01:17.504Z,100239.72
2022-08-07T01:06:21.929Z,100246.34
2022-08-07T01:12:09.280Z,100232.63
2022-08-07T01:16:50.460Z,100229.31
2022-08-07T01:21:57.125Z,100228.09
2022-08-07T01:27:03.617Z,100225.84
2022-08-07T01:32:12.467Z,100230.63
2022-08-07T01:37:20.825Z,100225.66
2022-08-07T01:42:38.538Z,100224.22
2022-08-07T01:48:21.518Z,100221.94
2022-08-07T01:53:20.807Z,100217.81
2022-08-07T01:58:33.285Z,100227.38
2022-08-07T02:03:48.940Z,100220.72
2022-08-07T02:08:57.083Z,100222.03
2022-08-07T02:14:03.180Z,100218.69
2022-08-07T02:20:04.238Z,100215.56
2022-08-07T02:24:35.976Z,100212.47
2022-08-07T02:29:48.581Z,100203.75
2022-08-07T02:34:58.903Z,100210.38
2022-08-07T02:40:29.699Z,100210.81
2022-08-07T02:45:58.270Z,100209.56
2022-08-07T02:50:58.632Z,100201.69
2022-08-07T02:56:11.266Z,100204.59
2022-08-07T03:01:35.961Z,100206.28
2022-08-07T03:06:45.961Z,100192.13
2022-08-07T03:11:58.011Z,100183.44
2022-08-07T03:17:08.675Z,100200.91
2022-08-07T03:22:18.899Z,100199.03
2022-08-07T03:27:30.815Z,100200.09
2022-08-07T03:32:57.039Z,100195.13
2022-08-07T03:38:05.251Z,100199.91
2022-08-07T03:43:14.564Z,100193.25
2022-08-07T03:48:22.424Z,100192.66
2022-08-07T03:53:50.116Z,100199.53
2022-08-07T03:59:08.794Z,100189.75
2022-08-07T04:04:17.953Z,100195.81
2022-08-07T04:09:24.504Z,100183.53
2022-08-07T04:14:38.772Z,100198.06
2022-08-07T04:19:52.270Z,100191.44
2022-08-07T04:25:01.663Z,100189.38
2022-08-07T04:30:20.928Z,100201.00
2022-08-07T04:35:37.101Z,100200.59
2022-08-07T04:40:52.418Z,100197.09
2022-08-07T04:46:12.338Z,100209.97
2022-08-07T04:51:29.494Z,100214.75
2022-08-07T04:58:11.764Z,100212.03
2022-08-07T05:02:16.930Z,100207.88
2022-08-07T05:07:30.488Z,100204.38
2022-08-07T05:12:46.414Z,100210.56
2022-08-07T05:18:06.153Z,100209.63
2022-08-07T05:23:16.568Z,100213.03
2022-08-07T05:28:26.763Z,100219.00
2022-08-07T05:33:36.892Z,100216.19
2022-08-07T05:39:00.644Z,100219.19
2022-08-07T05:44:11.799Z,100223.69
2022-08-07T05:49:20.688Z,100232.84
2022-08-07T05:54:30.707Z,100226.84
2022-08-07T05:59:55.767Z,100232.84
2022-08-07T06:05:05.023Z,100227.38
2022-08-07T06:10:11.192Z,100238.59
2022-08-07T06:15:19.893Z,100241.47
2022-08-07T06:20:49.723Z,100238.31
2022-08-07T06:25:54.298Z,100239.34
2022-08-07T06:31:00.472Z,100243.03
2022-08-07T06:36:13.077Z,100232.28
2022-08-07T06:42:02.509Z,100237.88
2022-08-07T06:46:53.770Z,100229.13
2022-08-07T06:52:17.032Z,100226.50
2022-08-07T06:57:39.636Z,100223.97
2022-08-07T07:02:57.485Z,100226.06
2022-08-07T07:08:06.748Z,100218.59
2022-08-07T07:13:14.065Z,100220.63
2022-08-07T07:18:37.669Z,100219.44
2022-08-07T07:24:06.428Z,100225.25
2022-08-07T07:29:40.434Z,100222.53
2022-08-07T07:34:37.793Z,100220.03
2022-08-07T07:39:52.554Z,100222.31
2022-08-07T07:45:00.318Z,100218.53
2022-08-07T07:50:33.643Z,100221.03
2022-08-07T07:55:37.482Z,100214.75
2022-08-07T08:00:53.768Z,100204.53
2022-08-07T08:05:57.086Z,100212.22
2022-08-07T08:11:01.618Z,100195.38
2022-08-07T08:16:07.378Z,100208.50
2022-08-07T08:21:55.731Z,100205.59
2022-08-07T08:27:09.748Z,100198.44
2022-08-07T08:32:18.636Z,100192.81
2022-08-07T08:38:00.379Z,100192.59
2022-08-07T08:42:57.600Z,100200.28
2022-08-07T08:48:08.148Z,100192.81
2022-08-07T08:53:19.213Z,100190.50
2022-08-07T08:58:33.263Z,100169.88
2022-08-07T09:03:52.985Z,100174.13
2022-08-07T09:09:36.447Z,100183.09
2022-08-07T09:14:58.953Z,100169.53
2022-08-07T09:20:34.787Z,100174.41
2022-08-07T09:25:54.572Z,100166.44
2022-08-07T09:31:03.049Z,100171.34
2022-08-07T09:36:12.733Z,100161.59
2022-08-07T09:41:24.978Z,100151.13
2022-08-07T09:47:51.999Z,100153.41
2022-08-07T09:52:33.531Z,100153.81
2022-08-07T09:57:55.143Z,100150.28
2022-08-07T10:04:05.215Z,100145.31
2022-08-07T10:09:08.990Z,100139.75
2022-08-07T10:14:31.216Z,100140.22
2022-08-07T10:20:03.100Z,100128.75
2022-08-07T10:25:42.286Z,100133.59
2022-08-07T10:30:57.060Z,100129.44
2022-08-07T10:36:30.237Z,100124.03
2022-08-07T10:41:57.668Z,100118.03
2022-08-07T10:47:31.381Z,100117.16
2022-08-07T10:52:55.699Z,100100.91
2022-08-07T10:58:06.859Z,100097.34
2022-08-07T11:03:17.281Z,100095.25
2022-08-07T11:08:30.437Z,100092.53
2022-08-07T11:14:44.810Z,100089.00
2022-08-07T11:19:11.388Z,100078.16
2022-08-07T11:24:20.800Z,100070.63
2022-08-07T11:29:47.272Z,100068.50
2022-08-07T11:34:52.370Z,100064.75
2022-08-07T11:40:10.078Z,100063.44
2022-08-07T11:45:20.324Z,100058.03
2022-08-07T11:50:33.508Z,100060.88
2022-08-07T11:56:09.718Z,100055.91
2022-08-07T12:01:59.795Z,100042.50
2022-08-07T12:07:02.381Z,100047.66
2022-08-07T12:12:14.712Z,100046.59
2022-08-07T12:17:21.978Z,100048.28
2022-08-07T12:22:38.940Z,100044.50
2022-08-07T12:28:09.041Z,100037.06
2022-08-07T12:33:23.517Z,100033.16
2022-08-07T12:38:42.507Z,100030.47
2022-08-07T12:44:02.829Z,100023.50
2022-08-07T12:49:25.358Z,100024.59
2022-08-07T12:54:54.658Z,100018.91
2022-08-07T13:00:01.180Z,100016.81
2022-08-07T13:06:03.676Z,100012.19
2022-08-07T13:10:51.871Z,100013.00
2022-08-07T13:16:01.838Z,100005.47
2022-08-07T13:21:10.812Z,99995.44
2022-08-07T13:26:18.598Z,100000.44
2022-08-07T13:31:32.102Z,99990.16
2022-08-07T13:36:54.307Z,99987.44
2022-08-07T13:41:57.551Z,99985.31
2022-08-07T13:47:02.557Z,99980.22
2022-08-07T13:52:32.107Z,99973.50
2022-08-07T13:57:38.128Z,99966.66
2022-08-07T14:02:51.069Z,99965.97
2022-08-07T14:08:01.203Z,99965.50
2022-08-07T14:13:05.106Z,99963.38
2022-08-07T14:18:29.669Z,99965.88
2022-08-07T14:24:01.661Z,99961.25
2022-08-07T14:29:08.497Z,99961.03
2022-08-07T14:34:30.771Z,99952.41
2022-08-07T14:40:15.518Z,99953.22
2022-08-07T14:45:21.780Z,99947.63
2022-08-07T14:50:42.759Z,99932.16
2022-08-07T15:06:39.852Z,99931.66
2022-08-07T15:12:01.276Z,99933.31
2022-08-07T15:17:12.454Z,99931.19
2022-08-07T15:22:29.519Z,99927.44
2022-08-07T15:27:36.780Z,99931.78
2022-08-07T15:33:01.453Z,99925.88
2022-08-07T15:38:17.678Z,99925.88
2022-08-07T15:43:53.851Z,99918.31
2022-08-07T15:59:44.143Z,99912.41
2022-08-07T16:04:47.186Z,99911.31
2022-08-07T16:09:52.981Z,99915.72
2022-08-07T16:15:55.030Z,99908.16
2022-08-07T16:20:55.255Z,99898.13
2022-08-07T16:26:14.407Z,99897.84
2022-08-07T16:31:51.899Z,99903.28
2022-08-07T16:38:03.512Z,99901.66
2022-08-07T16:43:05.217Z,99904.72
2022-08-07T16:49:04.262Z,99903.88
2022-08-07T16:54:38.468Z,99905.56
2022-08-07T17:00:05.408Z,99905.56
2022-08-07T17:06:19.903Z,99899.03
2022-08-07T17:10:54.546Z,99901.75
2022-08-07T17:16:04.255Z,99907.19
2022-08-07T17:21:19.174Z,99905.28
2022-08-07T17:26:35.875Z,99908.84
2022-08-07T17:32:02.651Z,99903.41
2022-08-07T17:38:08.423Z,99900.47
2022-08-07T17:42:59.194Z,99901.53
2022-08-07T17:48:10.379Z,99905.06
2022-08-07T17:54:00.039Z,99895.03
2022-08-07T17:58:59.350Z,99897.53
2022-08-07T18:04:16.157Z,99908.38
2022-08-07T18:10:05.248Z,99898.34
2022-08-07T18:14:50.869Z,99903.75
2022-08-07T18:21:10.553Z,99908.13
2022-08-07T18:25:40.879Z,99915.44
2022-08-07T18:30:52.671Z,99916.28
2022-08-07T18:36:06.037Z,99920.16
2022-08-07T18:41:16.754Z,99917.31
2022-08-07T18:46:27.013Z,99924.50
2022-08-07T18:52:35.317Z,99925.34
2022-08-07T18:57:39.983Z,99936.78
2022-08-07T19:02:42.508Z,99946.81
2022-08-07T19:07:58.866Z,99944.34
2022-08-07T19:13:11.867Z,99948.38
2022-08-07T19:18:34.992Z,99954.50
2022-08-07T19:23:58.135Z,99963.97
2022-08-07T19:30:57.161Z,99966.34
2022-08-07T19:34:33.924Z,99968.69
2022-08-07T19:39:40.802Z,99977.69
2022-08-07T19:45:08.651Z,99993.63
2022-08-07T19:50:40.985Z,99987.13
2022-08-07T19:55:56.752Z,99997.63
2022-08-07T20:00:59.849Z,100006.03
2022-08-07T20:06:06.025Z,100000.00
2022-08-07T20:11:11.998Z,99998.34
2022-08-07T20:16:34.911Z,100005.91
2022-08-07T20:21:42.274Z,100002.84
2022-08-07T20:26:54.457Z,99998.09
2022-08-07T20:32:00.616Z,99991.84
2022-08-07T20:37:05.542Z,100005.91
2022-08-07T20:42:12.300Z,100003.44
2022-08-07T20:47:25.012Z,100007.19
2022-08-07T20:52:50.794Z,100017.47
2022-08-07T20:58:04.123Z,100024.19
2022-08-07T21:03:19.299Z,100019.47
2022-08-07T21:08:36.953Z,100020.16
2022-08-07T21:14:16.710Z,100010.94
2022-08-07T21:19:14.066Z,100017.66
2022-08-07T21:24:23.673Z,100014.59
2022-08-07T21:29:33.473Z,100015.63
2022-08-07T21:34:46.282Z,100018.59
2022-08-07T21:39:56.605Z,100016.59
2022-08-07T21:46:05.423Z,100014.44
2022-08-07T21:50:33.515Z,100020.84
2022-08-07T21:55:43.583Z,100032.38
2022-08-07T22:00:54.081Z,100041.56
2022-08-07T22:06:01.778Z,100039.94
2022-08-07T22:11:06.033Z,100046.44
2022-08-07T22:16:39.780Z,100044.75
2022-08-07T22:22:05.291Z,100036.00
2022-08-07T22:27:07.036Z,100031.88
2022-08-07T22:32:20.390Z,100033.16
2022-08-07T22:38:03.749Z,100022.19
2022-08-07T22:43:10.916Z,100032.00
2022-08-07T22:48:55.093Z,100033.03
2022-08-07T22:54:06.830Z,100035.19
2022-08-07T22:59:32.675Z,100038.34
2022-08-07T23:04:58.594Z,100036.94
2022-08-07T23:10:38.374Z,100032.78
2022-08-07T23:16:06.452Z,100037.84
2022-08-07T23:21:29.810Z,100039.72
2022-08-07T23:26:50.242Z,100040.78
2022-08-07T23:34:20.774Z,100040.19
2022-08-07T23:38:01.494Z,100046.91
2022-08-07T23:43:38.014Z,100032.75
2022-08-07T23:48:58.746Z,100039.91
2022-08-07T23:54:08.378Z,100042.00
